Aérodrome :







RETROUVEZ-NOUS SUR...

 
LOGIN :

S'inscrire | Disclaimer

   EN    FR    IT 

 









Légende :    VFR   VFR Marginal   IFR   IFR Intensif   IFR Très Intensif
Visi : 
Plafond : 
>= 8 km
>= 3000ft
5 à 8 km
1000 à 3000 ft
1500m à 5 km
500 à 1000 ft
800 à 1500m
200 à 500 ft
< 800m
< 200 ft
Symboles :   Orages  Brouillard  Fortes neiges  Fortes précipitations  Vent > 20 kt






- Altitude de l'aérodrome : 108 ft
- Code IATA : YGP


CYGP - Gaspé

DERNIER METAR :
  • 150100Z 10014G19KT 1 1/2SM -RA OVC007 01/00 A2960 RMK SC8 PRESFR SLP025

METARs EXPIRÉS :
  • 150046Z 10013KT 1 1/2SM -RA OVC007 01/00 A2962 RMK SC8 PRESFR SLP032
  • 150000Z 10017G22KT 1SM -FZDZ OVC005 01/M00 A2969 RMK SC8 PRESFR SLP058
  • 142331Z 10011G17KT 1SM FZDZ OVC005 00/M00 A2973 RMK SC8 PRESFR SLP073
  • 142300Z 10013G19KT 1 1/2SM -SN OVC008 00/M00 A2978 RMK SC8 SLP088

TAF TAF CYGP
Valide du 15 à 02h jusqu'au 15 à 14h UTC


150138Z 1502/1514 10012G22KT 11/2SM -RA BR OVC004
TEMPO 1502/1506 6SM -RA BR OVC008
BECMG 1504/1506 VRB03KT
FM150600 VRB03KT 1/2SM -RA FG VV002
BECMG 1508/1510 18012G22KT
FM151200 19012G22KT 2SM -RA BR OVC004
BECMG 1512/1514 6SM -RA BR OVC008 RMK NXT FCST BY 150800Z



MET'MAP, la Météo Aéronautique d'un coup d'oeil ! - Copyright ORBIFLY Décembre 2007 - Disclaimer

ORBIFLY MET'MAP TEAM :

Programmation & Développement : Alexandra Zaïnal
Sur une idée originale de : Baudouin d'Aumeries
Assistance à la programmation : Marc-Olivier Méhu
Soutien technique & logistique : Manuel Goepfert

Contact : metmap@orbifly.com




SOURCES & CREDITS :

   NOAA